Irving, TX (75063)

4:11 AM CST on February 11, 2016 (GMT -0600)
Hackberry Creek | | Change Station
CLOSE
Current Station
Personal Weather Station
Location: Irving, TX
Elevation: 507 ft
Nearby Weather Stations
Active Advisory: Flood Warning

Elev 507 ft 32.91 °N, 96.98 °W | Updated 28 seconds ago

Clear
Clear
52.2 °F
Feels Like 52.2 °F
N
0.0
Wind Variable Wind from SSW
Gusts 0.0 mph

Today
High -- | Low -- °F
--% Chance of Precip.
Yesterday
High -- | Low -- °F
Precip. -- in
Pressure 30.00 in
Visibility 10.0 miles
Clouds Clear
Dew Point 35 °F
Humidity 52%
Rainfall 0.00 in
Snow Depth Not available.
7:15 AM 6:09 PM
Waxing Crescent, 11% visible
METAR KDFW 110953Z 21010KT 10SM CLR 10/M01 A3001 RMK AO2 SLP158 T01001006
Pressure 30.00 in
Visibility 10.0 miles
Clouds Clear
Dew Point 35 °F
Humidity 52%
Rainfall 0.00 in
Snow Depth Not available.
7:15 AM 6:09 PM
Waxing Crescent, 11% visible
METAR KDFW 110953Z 21010KT 10SM CLR 10/M01 A3001 RMK AO2 SLP158 T01001006

10-Day Weather Forecast

Almanac

Astronomy

Feb. 11, 2016 Rise Set
Actual Time
Civil Twilight
Nautical Twilight
Astronomical Twilight
Moon
Length of Visible Light
Length of Day
Tomorrow will be .
, % of the Moon is Illuminated

Today's Extremes

State Highs State Lows

Community

WunderPhotos

Upload Photos

1,892,030 photos uploaded!

WunderBlog® & News

Nearby

Air Quality

  Air Quality AQ Index Pollutant
Not available.

Snow Depth

Station Depth Elevation

Earthquake Activity

City Distance Mag. Time & Date
Minimum magnitude displayed is 2.5.

Coastal Water Temperatures

Place Temperature

Stations

Nearby Weather Stations

Station Location Temp. Windchill Dew Point Humidity Wind Precip. Elev Updated Type
                   

Watches & Warnings

Flood Warning
Issued: 6:38 PM CST Feb. 10, 2016 – National Weather Service

The Flood Warning continues for
the Elm Fork Trinity River near Carrollton.
* At 0615 PM Wednesday the stage was 8.37 feet.
* Flood stage is 8 feet.
* Minor flooding is occurring and minor flooding is forecast.
* Forecast... the river will remain near 8.3 feet for the next few
days.


Lat... Lon 3300 9700 3287 9699 3287 9687 3300 9688